Hlavní strana
METAR-TAF:

METAR-TAF

Letiště :

Yap, Mikronésie

zeměpisná šířka: 09-29N, zeměpisná délka: 138-05E, výška: 28 m

Aktuální stav počasí

Zpráva byla vytvořena před 32 minutami, v 13:50 UTC
vítr z různých směrů 2 kt
Teplota 26°C
Vlhkost vzduchu 94%
Tlak 1012 hPa
Viditelnost: 19.3 km
Skoro jasno ve výšce 1600 ft
Polojasno ve výšce 13000 ft
Oblačno až skoro zataženo ve výšce 30000 ft

METAR: PTYA 191350Z VRB02KT 12SM FEW016 SCT130 BKN300 26/25 A2987 RMK SLP115 T02640249

Čas: 00:22 (14:22 UTC)

Předpověď počasí

Zpráva byla vytvořena před 2 hodinami a 54 minutami, v 11:28 UTC
Předpověď platná od 19 v 12 UTC do 20 v 12 UTC
vítr z různých směrů 5 kt
Viditelnost: 10 km
Skoro jasno ve výšce 1800 ft
Polojasno ve výšce 13000 ft
přeháňky v blízkosti

TAF: PTYA 191128Z 1912/2012 VRB05KT P6SM VCSH FEW018 SCT130

Stav a předpovědi počasí z více než 4 000 letišť (zprávy METAR a TAF).

Červené a žluté tečky na mapě představují dostupné meteorologické stanice.

Když kurzor umístíte na tečku, zobrazí se název stanice.

Pak kliknutím zobrazíte stav a předpověď počasí.

Chcete-li změnit mapu, kliknutím na zelené tlačítko se znaménkem +mapu přiblížíte, kliknutím na zelené tlačítko se znaménkem – mapu oddálíte a kliknutím na zelené šipky přejdete na sousední mapy.


METAR-TAF: